createdAt,value
2022-10-11T00:00:38.129Z,71.62
2022-10-11T00:03:25.922Z,71.69
2022-10-11T00:05:54.667Z,71.74
2022-10-11T00:08:22.350Z,71.87
2022-10-11T00:10:58.589Z,71.99
2022-10-11T00:13:27.690Z,72.35
2022-10-11T00:15:56.006Z,72.38
2022-10-11T00:18:24.227Z,72.54
2022-10-11T00:21:03.329Z,72.68
2022-10-11T00:23:31.033Z,72.68
2022-10-11T00:26:04.659Z,72.84
2022-10-11T00:28:33.806Z,72.71
2022-10-11T00:31:02.655Z,72.82
2022-10-11T00:33:30.542Z,73.05
2022-10-11T00:36:00.055Z,73.03
2022-10-11T00:38:28.207Z,73.17
2022-10-11T00:40:55.891Z,73.11
2022-10-11T00:43:25.682Z,73.46
2022-10-11T00:45:56.810Z,73.52
2022-10-11T00:48:38.557Z,73.58
2022-10-11T00:51:16.649Z,73.57
2022-10-11T00:53:47.027Z,73.68
2022-10-11T00:56:23.640Z,73.57
2022-10-11T00:58:52.152Z,73.57
2022-10-11T01:01:46.426Z,73.73
2022-10-11T01:04:16.409Z,73.84
2022-10-11T01:06:45.069Z,74.25
2022-10-11T01:09:13.878Z,74.36
2022-10-11T01:11:43.492Z,74.37
2022-10-11T01:14:37.730Z,74.57
2022-10-11T01:17:44.271Z,74.66
2022-10-11T01:20:19.718Z,74.78
2022-10-11T01:23:21.909Z,74.94
2022-10-11T01:26:11.115Z,75.05
2022-10-11T01:28:51.130Z,75.02
2022-10-11T01:31:26.226Z,75.15
2022-10-11T01:34:10.187Z,75.04
2022-10-11T01:36:43.150Z,75.14
2022-10-11T01:39:16.788Z,75.23
2022-10-11T01:41:49.309Z,75.56
2022-10-11T01:44:17.671Z,75.66
2022-10-11T01:46:45.367Z,75.75
2022-10-11T01:49:13.088Z,76.00
2022-10-11T01:51:47.323Z,75.96
2022-10-11T01:55:03.899Z,76.19
2022-10-11T01:57:33.011Z,76.37
2022-10-11T02:00:17.940Z,76.77
2022-10-11T02:02:53.098Z,76.88
2022-10-11T02:05:40.431Z,76.71
2022-10-11T02:08:47.303Z,77.06
2022-10-11T02:11:31.257Z,77.12
2022-10-11T02:14:01.909Z,77.39
2022-10-11T02:16:41.891Z,77.15
2022-10-11T02:19:13.047Z,77.50
2022-10-11T02:21:44.017Z,77.49
2022-10-11T02:24:19.339Z,77.62
2022-10-11T02:26:53.129Z,77.69
2022-10-11T02:29:24.531Z,77.76
2022-10-11T02:31:54.284Z,77.92
2022-10-11T02:34:26.057Z,77.71
2022-10-11T02:37:06.256Z,77.78
2022-10-11T02:39:49.131Z,77.69
2022-10-11T02:42:32.922Z,77.61
2022-10-11T02:45:10.898Z,77.73
2022-10-11T02:47:40.362Z,78.24
2022-10-11T02:50:08.455Z,78.19
2022-10-11T02:52:36.060Z,78.55
2022-10-11T02:55:04.248Z,78.62
2022-10-11T02:57:31.982Z,79.27
2022-10-11T02:59:59.652Z,79.32
2022-10-11T03:02:27.822Z,79.45
2022-10-11T03:04:55.382Z,79.67
2022-10-11T03:07:23.322Z,79.72
2022-10-11T03:09:51.464Z,79.45
2022-10-11T03:12:19.488Z,79.67
2022-10-11T03:14:47.120Z,79.82
2022-10-11T03:17:34.924Z,79.97
2022-10-11T03:20:02.637Z,80.06
2022-10-11T03:22:30.327Z,80.37
2022-10-11T03:25:03.400Z,80.46
2022-10-11T03:27:35.607Z,80.53
2022-10-11T03:30:03.929Z,80.78
2022-10-11T03:32:31.566Z,80.99
2022-10-11T03:34:59.606Z,80.93
2022-10-11T03:37:27.261Z,81.22
2022-10-11T03:39:54.920Z,81.75
2022-10-11T03:42:25.379Z,82.03
2022-10-11T03:44:53.055Z,82.16
2022-10-11T03:47:20.721Z,82.23
2022-10-11T03:49:48.911Z,82.62
2022-10-11T03:52:16.515Z,83.07
2022-10-11T03:54:44.252Z,83.15
2022-10-11T03:57:12.334Z,83.00
2022-10-11T03:59:40.065Z,82.95
2022-10-11T04:02:07.865Z,83.35
2022-10-11T04:04:36.105Z,83.42
2022-10-11T04:07:03.748Z,83.90
2022-10-11T04:09:31.541Z,83.52
2022-10-11T04:11:59.699Z,84.16
2022-10-11T04:14:27.455Z,83.80
2022-10-11T04:16:58.402Z,84.16
2022-10-11T04:19:28.517Z,83.49
2022-10-11T04:21:56.375Z,83.99
2022-10-11T04:24:24.048Z,83.62
2022-10-11T04:26:52.200Z,84.02
2022-10-11T04:29:19.810Z,84.10
2022-10-11T04:31:47.423Z,83.89
2022-10-11T04:34:15.539Z,84.19
2022-10-11T04:36:46.340Z,85.03
2022-10-11T04:39:17.655Z,85.46
2022-10-11T04:41:45.315Z,85.68
2022-10-11T04:44:12.945Z,85.57
2022-10-11T04:46:40.723Z,85.91
2022-10-11T04:49:08.836Z,85.84
2022-10-11T04:51:36.522Z,85.84
2022-10-11T04:54:05.046Z,86.06
2022-10-11T04:56:32.691Z,86.03
2022-10-11T04:59:00.345Z,86.03
2022-10-11T05:01:28.196Z,86.11
2022-10-11T05:03:55.837Z,86.03
2022-10-11T05:06:23.486Z,86.32
2022-10-11T05:08:51.311Z,86.33
2022-10-11T05:11:19.256Z,86.78
2022-10-11T05:13:47.388Z,86.92
2022-10-11T05:16:15.674Z,87.09
2022-10-11T05:18:44.073Z,86.89
2022-10-11T05:21:24.988Z,87.03
2022-10-11T05:23:55.230Z,87.53
2022-10-11T05:26:27.499Z,87.30
2022-10-11T05:28:55.709Z,87.30
2022-10-11T05:31:23.753Z,87.29
2022-10-11T05:33:51.456Z,87.35
2022-10-11T05:36:19.362Z,87.01
2022-10-11T05:38:47.494Z,87.14
2022-10-11T05:41:16.280Z,86.74
2022-10-11T05:43:44.809Z,86.82
2022-10-11T05:46:13.301Z,86.75
2022-10-11T05:48:41.272Z,87.05
2022-10-11T05:51:10.703Z,86.82
2022-10-11T05:53:39.417Z,86.55
2022-10-11T05:56:18.943Z,86.63
2022-10-11T05:58:47.030Z,86.34
2022-10-11T06:01:21.194Z,86.32
2022-10-11T06:03:49.163Z,86.33
2022-10-11T06:06:20.086Z,85.98
2022-10-11T06:08:48.112Z,85.93
2022-10-11T06:11:21.587Z,85.53
2022-10-11T06:13:49.353Z,85.46
2022-10-11T06:16:17.082Z,85.28
2022-10-11T06:18:45.033Z,85.00
2022-10-11T06:21:13.388Z,84.76
2022-10-11T06:23:41.152Z,84.41
2022-10-11T06:26:09.893Z,84.24
2022-10-11T06:28:37.990Z,83.92
2022-10-11T06:31:09.505Z,83.75
2022-10-11T06:33:37.413Z,83.59
2022-10-11T06:36:14.684Z,83.38
2022-10-11T06:38:46.077Z,82.73
2022-10-11T06:41:19.028Z,82.63
2022-10-11T06:43:49.352Z,82.53
2022-10-11T06:46:18.741Z,82.52
2022-10-11T06:48:48.235Z,82.30
2022-10-11T06:51:18.769Z,82.30
2022-10-11T06:53:56.053Z,82.18
2022-10-11T06:56:28.121Z,81.91
2022-10-11T06:58:57.984Z,81.99
2022-10-11T07:01:26.593Z,81.90
2022-10-11T07:03:55.967Z,81.93
2022-10-11T07:06:26.650Z,81.68
2022-10-11T07:08:55.230Z,81.13
2022-10-11T07:11:26.098Z,81.40
2022-10-11T07:13:56.409Z,80.75
2022-10-11T07:16:25.507Z,80.28
2022-10-11T07:18:59.892Z,79.71
2022-10-11T07:21:30.597Z,79.70
2022-10-11T07:23:59.047Z,79.28
2022-10-11T07:26:28.209Z,78.51
2022-10-11T07:28:56.172Z,77.89
2022-10-11T07:31:26.220Z,77.25
2022-10-11T07:33:54.290Z,76.98
2022-10-11T07:36:23.407Z,76.51
2022-10-11T07:38:52.254Z,76.62
2022-10-11T07:41:20.617Z,76.52
2022-10-11T07:43:51.145Z,76.35
2022-10-11T07:46:18.947Z,75.78
2022-10-11T07:48:46.757Z,75.18
2022-10-11T07:51:18.072Z,74.81
2022-10-11T07:53:48.830Z,74.88
2022-10-11T07:56:20.911Z,74.55
2022-10-11T07:58:53.940Z,74.83
2022-10-11T08:01:22.283Z,74.31
2022-10-11T08:03:52.280Z,73.58
2022-10-11T08:06:23.244Z,72.87
2022-10-11T08:08:51.687Z,73.34
2022-10-11T08:11:25.063Z,73.22
2022-10-11T08:13:52.899Z,72.68
2022-10-11T08:16:21.603Z,71.42
2022-10-11T08:18:49.632Z,71.55
2022-10-11T08:21:20.193Z,70.90
2022-10-11T08:23:48.273Z,70.91
2022-10-11T08:26:16.368Z,71.14
2022-10-11T08:28:44.255Z,70.97
2022-10-11T08:31:15.014Z,70.40
2022-10-11T08:33:43.470Z,68.92
2022-10-11T08:36:12.107Z,68.62
2022-10-11T08:38:42.675Z,69.08
2022-10-11T08:41:21.214Z,68.21
2022-10-11T08:44:14.498Z,68.14
2022-10-11T08:46:48.601Z,68.30
2022-10-11T08:49:19.883Z,68.88
2022-10-11T08:52:02.809Z,69.04
2022-10-11T08:54:45.046Z,67.98
2022-10-11T08:57:19.648Z,66.40
2022-10-11T08:59:51.568Z,66.08
2022-10-11T09:03:07.584Z,66.29
2022-10-11T09:05:41.600Z,64.17
2022-10-11T09:08:50.041Z,64.25
2022-10-11T09:11:38.151Z,63.52
2022-10-11T09:14:24.215Z,63.27
2022-10-11T09:17:01.814Z,63.79
2022-10-11T09:19:32.944Z,62.88
2022-10-11T09:22:30.758Z,61.41
2022-10-11T09:25:07.735Z,62.08
2022-10-11T09:28:01.777Z,61.86
2022-10-11T09:30:30.519Z,60.74
2022-10-11T09:33:08.188Z,60.43
2022-10-11T09:35:43.347Z,59.66
2022-10-11T09:38:24.751Z,60.15
2022-10-11T09:41:13.051Z,60.42
2022-10-11T09:43:41.226Z,58.44
2022-10-11T09:46:24.201Z,58.59
2022-10-11T09:48:56.309Z,58.36
2022-10-11T09:51:27.713Z,58.69
2022-10-11T09:54:02.193Z,58.41
2022-10-11T09:56:35.799Z,57.80
2022-10-11T09:59:16.963Z,57.22
2022-10-11T10:01:45.026Z,56.66
2022-10-11T10:04:17.099Z,56.68
2022-10-11T10:06:44.941Z,55.42
2022-10-11T10:09:19.862Z,55.23
2022-10-11T10:11:48.174Z,55.45
2022-10-11T10:14:23.128Z,56.19
2022-10-11T10:17:00.757Z,56.00
2022-10-11T10:19:29.624Z,55.80
2022-10-11T10:21:57.714Z,55.34
2022-10-11T10:24:39.382Z,54.57
2022-10-11T10:27:21.240Z,54.94
2022-10-11T10:30:10.490Z,54.64
2022-10-11T10:32:43.882Z,54.28
2022-10-11T10:35:53.537Z,53.65
2022-10-11T10:38:38.673Z,53.45
2022-10-11T10:41:10.559Z,51.86
2022-10-11T10:43:42.387Z,50.02
2022-10-11T10:46:27.662Z,49.94
2022-10-11T10:52:03.334Z,51.36
2022-10-11T10:54:50.254Z,51.52
2022-10-11T10:57:21.146Z,50.42
2022-10-11T10:59:57.759Z,50.27
2022-10-11T11:02:45.144Z,49.76
2022-10-11T11:05:23.997Z,49.78
2022-10-11T11:07:58.036Z,50.61
2022-10-11T11:10:40.618Z,51.00
2022-10-11T11:13:36.309Z,50.82
2022-10-11T11:16:13.629Z,51.43
2022-10-11T11:19:11.639Z,50.71
2022-10-11T11:21:50.087Z,50.74
2022-10-11T11:25:06.400Z,49.91
2022-10-11T11:27:59.985Z,49.58
2022-10-11T11:30:41.083Z,50.09
2022-10-11T11:33:47.826Z,49.49
2022-10-11T11:36:23.906Z,49.71
2022-10-11T11:39:01.488Z,49.48
2022-10-11T11:41:36.693Z,49.34
2022-10-11T11:44:27.334Z,49.40
2022-10-11T11:47:19.021Z,48.94
2022-10-11T11:49:54.989Z,48.63
2022-10-11T11:52:57.279Z,48.97
2022-10-11T11:55:35.589Z,48.64
2022-10-11T11:58:38.609Z,47.37
2022-10-11T12:01:53.797Z,47.38
2022-10-11T12:04:36.589Z,47.57
2022-10-11T12:07:23.366Z,48.14
2022-10-11T12:10:15.253Z,46.45
2022-10-11T12:12:43.340Z,46.21
2022-10-11T12:15:26.902Z,46.38
2022-10-11T12:17:54.622Z,45.50
2022-10-11T12:20:28.875Z,45.03
2022-10-11T12:23:00.763Z,45.04
2022-10-11T12:25:29.742Z,44.72
2022-10-11T12:27:58.389Z,44.29
2022-10-11T12:30:44.833Z,44.01
2022-10-11T12:33:15.454Z,44.00
2022-10-11T12:35:55.554Z,42.85
2022-10-11T12:38:40.407Z,41.76
2022-10-11T12:41:10.784Z,42.05
2022-10-11T12:43:47.628Z,41.73
2022-10-11T12:46:40.511Z,42.27
2022-10-11T12:49:22.967Z,41.06
2022-10-11T12:52:03.974Z,40.93
2022-10-11T12:54:52.061Z,40.46
2022-10-11T12:57:46.618Z,40.79
2022-10-11T13:00:17.923Z,41.11
2022-10-11T13:02:47.186Z,40.80
2022-10-11T13:05:35.536Z,39.59
2022-10-11T13:08:05.572Z,39.22
2022-10-11T13:10:56.877Z,39.01
2022-10-11T13:13:28.945Z,39.05
2022-10-11T13:15:59.456Z,38.77
2022-10-11T13:18:27.407Z,38.38
2022-10-11T13:20:55.326Z,37.67
2022-10-11T13:23:28.167Z,37.07
2022-10-11T13:25:56.874Z,36.58
2022-10-11T13:28:24.611Z,36.99
2022-10-11T13:30:56.744Z,36.30
2022-10-11T13:33:40.821Z,36.56
2022-10-11T13:36:17.892Z,36.82
2022-10-11T13:39:31.023Z,37.20
2022-10-11T13:42:08.771Z,36.84
2022-10-11T13:44:38.647Z,36.49
2022-10-11T13:47:06.760Z,36.27
2022-10-11T13:49:40.439Z,36.75
2022-10-11T13:52:23.471Z,37.11
2022-10-11T13:54:58.377Z,36.90
2022-10-11T13:57:48.351Z,36.02
2022-10-11T14:00:29.358Z,34.41
2022-10-11T14:03:19.054Z,35.78
2022-10-11T14:05:56.477Z,35.35
2022-10-11T14:08:33.781Z,35.67
2022-10-11T14:11:06.282Z,35.46
2022-10-11T14:13:38.964Z,35.40
2022-10-11T14:16:09.863Z,34.65
2022-10-11T14:19:17.251Z,34.31
2022-10-11T14:21:45.892Z,34.98
2022-10-11T14:24:14.666Z,34.66
2022-10-11T14:26:43.592Z,35.35
2022-10-11T14:29:16.707Z,35.91
2022-10-11T14:31:44.490Z,36.51
2022-10-11T14:34:19.945Z,36.86
2022-10-11T14:36:48.692Z,37.48
2022-10-11T14:39:20.331Z,37.62
2022-10-11T14:41:49.012Z,37.58
2022-10-11T14:44:16.875Z,37.54
2022-10-11T14:46:46.228Z,37.83
2022-10-11T14:49:15.644Z,37.91
2022-10-11T14:51:44.944Z,37.69
2022-10-11T14:54:14.314Z,37.92
2022-10-11T14:56:42.276Z,37.06
2022-10-11T14:59:14.822Z,36.06
2022-10-11T15:01:43.041Z,36.04
2022-10-11T15:04:10.840Z,36.07
2022-10-11T15:06:40.662Z,36.26
2022-10-11T15:09:08.473Z,35.80
2022-10-11T15:11:38.307Z,36.10
2022-10-11T15:14:06.784Z,36.39
2022-10-11T15:16:35.700Z,36.38
2022-10-11T15:19:03.816Z,36.80
2022-10-11T15:21:31.883Z,37.14
2022-10-11T15:23:59.787Z,37.51
2022-10-11T15:26:29.322Z,37.93
2022-10-11T15:28:57.853Z,38.23
2022-10-11T15:31:25.871Z,38.58
2022-10-11T15:33:53.612Z,38.95
2022-10-11T15:36:22.449Z,39.18
2022-10-11T15:38:50.835Z,39.38
2022-10-11T15:41:25.652Z,39.64
2022-10-11T15:43:53.624Z,39.79
2022-10-11T15:46:26.267Z,40.04
2022-10-11T15:56:15.607Z,41.09
2022-10-11T15:58:46.345Z,41.63
2022-10-11T16:07:18.320Z,42.47
2022-10-11T16:23:32.598Z,44.47
2022-10-11T16:27:36.999Z,44.76
2022-10-11T16:31:19.695Z,45.30
2022-10-11T16:34:19.731Z,45.66
2022-10-11T16:36:47.423Z,45.93
2022-10-11T16:39:18.686Z,46.35
2022-10-11T16:41:47.115Z,46.77
2022-10-11T16:44:17.913Z,47.01
2022-10-11T16:46:50.616Z,47.35
2022-10-11T16:49:22.540Z,48.00
2022-10-11T16:51:52.868Z,48.43
2022-10-11T16:54:21.407Z,49.06
2022-10-11T16:56:50.115Z,49.32
2022-10-11T16:59:18.558Z,49.65
2022-10-11T17:01:46.353Z,50.17
2022-10-11T17:04:15.032Z,50.76
2022-10-11T17:06:43.967Z,51.33
2022-10-11T17:09:12.645Z,51.73
2022-10-11T17:11:40.820Z,52.22
2022-10-11T17:14:09.162Z,52.55
2022-10-11T17:16:36.934Z,52.95
2022-10-11T17:19:05.319Z,52.74
2022-10-11T17:21:33.050Z,53.03
2022-10-11T17:24:00.768Z,53.55
2022-10-11T17:26:28.545Z,53.89
2022-10-11T17:28:58.996Z,54.23
2022-10-11T17:31:28.465Z,54.29
2022-10-11T17:34:00.162Z,54.28
2022-10-11T17:36:32.024Z,54.62
2022-10-11T17:39:01.667Z,54.65
2022-10-11T17:41:32.104Z,54.66
2022-10-11T17:44:01.148Z,55.16
2022-10-11T17:46:32.731Z,55.27
2022-10-11T17:49:02.076Z,55.79
2022-10-11T17:51:29.696Z,55.95
2022-10-11T17:53:57.839Z,56.16
2022-10-11T17:56:30.443Z,56.63
2022-10-11T17:59:00.511Z,56.83
2022-10-11T18:01:29.718Z,56.84
2022-10-11T18:04:03.447Z,56.67
2022-10-11T18:06:37.487Z,56.92
2022-10-11T18:09:07.305Z,57.52
2022-10-11T18:11:35.365Z,57.56
2022-10-11T18:14:03.232Z,57.94
2022-10-11T18:16:32.617Z,58.23
2022-10-11T18:19:03.103Z,58.44
2022-10-11T18:21:34.307Z,58.43
2022-10-11T18:24:05.250Z,58.92
2022-10-11T18:26:33.654Z,59.28
2022-10-11T18:29:01.445Z,59.64
2022-10-11T18:31:31.819Z,60.15
2022-10-11T18:33:59.887Z,59.76
2022-10-11T18:36:29.723Z,59.69
2022-10-11T18:39:01.568Z,59.57
2022-10-11T18:41:32.278Z,59.79
2022-10-11T18:44:02.711Z,60.27
2022-10-11T18:46:31.121Z,60.51
2022-10-11T18:49:01.790Z,60.39
2022-10-11T18:51:39.174Z,60.42
2022-10-11T18:54:09.196Z,60.60
2022-10-11T18:56:37.785Z,60.51
2022-10-11T18:59:06.971Z,60.71
2022-10-11T19:01:38.257Z,60.91
2022-10-11T19:04:08.347Z,61.14
2022-10-11T19:06:43.003Z,61.50
2022-10-11T19:09:18.070Z,61.35
2022-10-11T19:11:45.851Z,61.52
2022-10-11T19:14:16.726Z,61.56
2022-10-11T19:16:49.612Z,61.89
2022-10-11T19:19:20.642Z,62.17
2022-10-11T19:21:48.820Z,62.60
2022-10-11T19:24:19.273Z,62.70
2022-10-11T19:26:48.053Z,62.76
2022-10-11T19:29:21.784Z,62.69
2022-10-11T19:31:52.538Z,62.89
2022-10-11T19:34:21.832Z,63.08
2022-10-11T19:36:53.477Z,63.10
2022-10-11T19:39:22.589Z,63.36
2022-10-11T19:41:51.360Z,63.35
2022-10-11T19:44:19.451Z,63.37
2022-10-11T19:46:51.996Z,63.61
2022-10-11T19:49:25.785Z,63.59
2022-10-11T19:51:55.562Z,63.63
2022-10-11T19:54:24.050Z,63.75
2022-10-11T19:56:52.005Z,63.73
2022-10-11T19:59:19.811Z,63.85
2022-10-11T20:01:52.317Z,63.99
2022-10-11T20:04:50.595Z,64.09
2022-10-11T20:07:10.270Z,64.06
2022-10-11T20:09:39.058Z,64.31
2022-10-11T20:12:08.195Z,64.82
2022-10-11T20:14:35.868Z,65.04
2022-10-11T20:17:04.125Z,65.33
2022-10-11T20:19:32.040Z,65.38
2022-10-11T20:22:01.038Z,65.68
2022-10-11T20:24:33.280Z,65.84
2022-10-11T20:27:05.580Z,66.27
2022-10-11T20:29:34.150Z,66.51
2022-10-11T20:32:01.812Z,66.70
2022-10-11T20:34:29.615Z,66.84
2022-10-11T20:36:57.650Z,67.09
2022-10-11T20:39:25.485Z,67.45
2022-10-11T20:41:53.244Z,67.54
2022-10-11T20:44:21.468Z,67.77
2022-10-11T20:46:49.167Z,67.80
2022-10-11T20:49:19.849Z,68.00
2022-10-11T20:51:48.724Z,68.24
2022-10-11T20:54:16.672Z,68.37
2022-10-11T20:56:44.350Z,68.54
2022-10-11T20:59:12.409Z,68.64
2022-10-11T21:01:40.769Z,68.68
2022-10-11T21:04:14.789Z,68.71
2022-10-11T21:06:42.511Z,68.88
2022-10-11T21:09:12.607Z,68.81
2022-10-11T21:11:43.530Z,69.13
2022-10-11T21:14:11.460Z,69.46
2022-10-11T21:16:39.279Z,69.63
2022-10-11T21:19:07.238Z,69.71
2022-10-11T21:21:35.059Z,69.84
2022-10-11T21:24:03.083Z,69.83
2022-10-11T21:26:31.546Z,69.82
2022-10-11T21:28:59.472Z,69.95
2022-10-11T21:31:31.253Z,69.91
2022-10-11T21:34:04.087Z,69.84
2022-10-11T21:36:31.799Z,69.99
2022-10-11T21:38:59.430Z,70.38
2022-10-11T21:41:30.003Z,70.59
2022-10-11T21:43:58.260Z,70.71
2022-10-11T21:49:20.089Z,70.40
2022-10-11T21:51:48.035Z,70.57
2022-10-11T21:54:16.045Z,70.84
2022-10-11T21:56:43.851Z,70.87
2022-10-11T21:59:12.561Z,71.10
2022-10-11T22:01:41.047Z,71.20
2022-10-11T22:04:09.724Z,71.47
2022-10-11T22:06:38.472Z,71.51
2022-10-11T22:09:07.236Z,71.44
2022-10-11T22:11:35.646Z,71.30
2022-10-11T22:14:04.302Z,72.11
2022-10-11T22:16:33.938Z,72.19
2022-10-11T22:19:01.946Z,72.46
2022-10-11T22:21:29.846Z,72.34
2022-10-11T22:23:57.484Z,72.37
2022-10-11T22:26:29.870Z,73.07
2022-10-11T22:28:59.206Z,73.00
2022-10-11T22:31:26.844Z,73.18
2022-10-11T22:33:59.587Z,73.59
2022-10-11T22:36:30.364Z,73.31
2022-10-11T22:38:58.754Z,72.88
2022-10-11T22:41:26.680Z,73.40
2022-10-11T22:43:54.474Z,73.75
2022-10-11T22:46:22.149Z,73.71
2022-10-11T22:48:49.981Z,74.08
2022-10-11T22:51:17.773Z,74.06
2022-10-11T22:53:45.865Z,74.17
2022-10-11T22:56:13.693Z,74.18
2022-10-11T22:58:41.471Z,74.20
2022-10-11T23:01:11.310Z,74.31
2022-10-11T23:03:39.331Z,74.69
2022-10-11T23:06:07.770Z,74.76
2022-10-11T23:08:35.674Z,74.75
2022-10-11T23:11:07.763Z,74.94
2022-10-11T23:13:35.853Z,75.15
2022-10-11T23:16:09.203Z,75.35
2022-10-11T23:18:37.785Z,75.50
2022-10-11T23:21:06.316Z,75.73
2022-10-11T23:23:34.225Z,75.83
2022-10-11T23:26:13.616Z,75.94
2022-10-11T23:28:42.184Z,75.71
2022-10-11T23:31:12.991Z,75.77
2022-10-11T23:33:40.939Z,76.00
2022-10-11T23:36:15.176Z,76.05
2022-10-11T23:38:43.226Z,76.15
2022-10-11T23:41:11.432Z,75.90
2022-10-11T23:43:39.126Z,75.55
2022-10-11T23:46:07.058Z,76.08
2022-10-11T23:48:34.818Z,76.32
2022-10-11T23:51:02.607Z,76.49
2022-10-11T23:53:30.410Z,76.36
2022-10-11T23:55:58.304Z,75.89
2022-10-11T23:58:26.236Z,75.92
